createdAt,value
2023-04-19T00:01:32.628Z,11.40
2023-04-19T00:04:00.604Z,10.70
2023-04-19T00:06:30.578Z,12.40
2023-04-19T00:08:58.388Z,11.25
2023-04-19T00:11:27.419Z,11.73
2023-04-19T00:13:55.164Z,11.95
2023-04-19T00:16:22.896Z,11.05
2023-04-19T00:18:50.737Z,10.80
2023-04-19T00:21:18.601Z,12.18
2023-04-19T00:23:46.296Z,11.98
2023-04-19T00:26:15.766Z,10.13
2023-04-19T00:28:44.900Z,11.73
2023-04-19T00:31:13.025Z,11.35
2023-04-19T00:33:41.152Z,10.40
2023-04-19T00:36:10.622Z,10.80
2023-04-19T00:38:38.294Z,8.82
2023-04-19T00:41:06.015Z,11.50
2023-04-19T00:43:33.767Z,10.07
2023-04-19T00:46:03.428Z,11.98
2023-04-19T00:48:31.907Z,9.80
2023-04-19T00:50:59.838Z,11.35
2023-04-19T00:53:27.657Z,11.63
2023-04-19T00:55:58.530Z,13.52
2023-04-19T00:58:28.311Z,10.60
2023-04-19T01:00:56.921Z,10.90
2023-04-19T01:03:27.606Z,12.75
2023-04-19T01:05:56.288Z,11.73
2023-04-19T01:08:24.180Z,11.30
2023-04-19T01:10:51.865Z,12.10
2023-04-19T01:13:19.550Z,13.55
2023-04-19T01:15:47.325Z,12.15
2023-04-19T01:18:15.123Z,11.77
2023-04-19T01:20:44.263Z,11.05
2023-04-19T01:23:13.344Z,12.25
2023-04-19T01:25:41.012Z,11.18
2023-04-19T01:28:08.684Z,11.95
2023-04-19T01:30:36.872Z,11.30
2023-04-19T01:33:04.755Z,10.20
2023-04-19T01:35:32.544Z,11.25
2023-04-19T01:38:01.061Z,12.13
2023-04-19T01:40:30.244Z,11.35
2023-04-19T01:42:57.911Z,11.15
2023-04-19T01:45:25.717Z,11.40
2023-04-19T01:47:53.463Z,10.40
2023-04-19T01:50:21.253Z,10.77
2023-04-19T01:52:49.030Z,10.23
2023-04-19T01:55:16.797Z,10.23
2023-04-19T01:57:46.030Z,10.30
2023-04-19T02:00:15.237Z,10.50
2023-04-19T02:02:43.175Z,9.75
2023-04-19T02:05:11.522Z,10.55
2023-04-19T02:07:39.596Z,11.98
2023-04-19T02:10:10.588Z,10.07
2023-04-19T02:12:38.709Z,11.75
2023-04-19T02:15:09.279Z,10.55
2023-04-19T02:17:37.141Z,9.70
2023-04-19T02:20:05.999Z,10.68
2023-04-19T02:22:33.696Z,10.63
2023-04-19T02:25:02.309Z,10.20
2023-04-19T02:27:30.321Z,10.80
2023-04-19T02:29:58.108Z,10.48
2023-04-19T02:32:27.230Z,10.75
2023-04-19T02:34:54.934Z,10.00
2023-04-19T02:37:22.640Z,9.13
2023-04-19T02:39:50.410Z,10.25
2023-04-19T02:42:18.082Z,10.18
2023-04-19T02:44:45.847Z,10.38
2023-04-19T02:47:13.635Z,9.65
2023-04-19T02:49:42.707Z,9.05
2023-04-19T02:52:10.955Z,9.65
2023-04-19T02:54:38.699Z,8.25
2023-04-19T02:57:06.419Z,9.10
2023-04-19T02:59:34.112Z,10.48
2023-04-19T03:02:01.875Z,8.18
2023-04-19T03:04:31.345Z,9.82
2023-04-19T03:07:00.501Z,10.73
2023-04-19T03:09:28.261Z,10.10
2023-04-19T03:11:56.109Z,9.90
2023-04-19T03:14:23.815Z,10.52
2023-04-19T03:16:51.491Z,9.70
2023-04-19T03:19:19.204Z,9.98
2023-04-19T03:21:46.923Z,10.88
2023-04-19T03:24:16.226Z,11.02
2023-04-19T03:26:44.098Z,10.30
2023-04-19T03:29:11.816Z,9.88
2023-04-19T03:31:39.611Z,10.35
2023-04-19T03:34:07.432Z,9.77
2023-04-19T03:36:35.191Z,9.48
2023-04-19T03:39:04.189Z,11.30
2023-04-19T03:41:33.344Z,9.73
2023-04-19T03:44:01.079Z,10.50
2023-04-19T03:46:31.481Z,10.00
2023-04-19T03:48:59.444Z,9.65
2023-04-19T03:51:27.783Z,10.32
2023-04-19T03:53:55.522Z,8.93
2023-04-19T03:56:24.022Z,11.38
2023-04-19T03:58:53.344Z,10.93
2023-04-19T04:01:21.589Z,9.38
2023-04-19T04:03:49.713Z,8.00
2023-04-19T04:06:17.880Z,8.48
2023-04-19T04:08:46.266Z,10.07
2023-04-19T04:11:14.026Z,8.52
2023-04-19T04:13:41.782Z,10.40
2023-04-19T04:16:11.011Z,10.98
2023-04-19T04:18:38.809Z,11.40
2023-04-19T04:21:06.560Z,11.38
2023-04-19T04:23:35.290Z,9.70
2023-04-19T04:26:04.909Z,10.45
2023-04-19T04:28:33.462Z,9.57
2023-04-19T04:31:01.265Z,8.65
2023-04-19T04:33:30.358Z,9.70
2023-04-19T04:35:59.145Z,10.30
2023-04-19T04:38:27.298Z,10.70
2023-04-19T04:40:56.918Z,11.90
2023-04-19T04:43:29.096Z,12.38
2023-04-19T04:45:58.040Z,11.35
2023-04-19T04:48:26.385Z,11.73
2023-04-19T04:50:55.418Z,11.18
2023-04-19T04:53:23.329Z,9.93
2023-04-19T04:55:51.370Z,9.73
2023-04-19T04:58:20.447Z,10.85
2023-04-19T05:00:49.092Z,11.43
2023-04-19T05:03:16.910Z,9.75
2023-04-19T05:05:45.194Z,10.15
2023-04-19T05:08:14.503Z,11.00
2023-04-19T05:10:42.242Z,11.30
2023-04-19T05:13:09.982Z,10.48
2023-04-19T05:15:37.813Z,9.68
2023-04-19T05:18:07.426Z,10.07
2023-04-19T05:20:35.144Z,9.48
2023-04-19T05:23:03.473Z,9.23
2023-04-19T05:25:32.568Z,8.77
2023-04-19T05:28:00.377Z,8.55
2023-04-19T05:30:28.175Z,10.15
2023-04-19T05:32:56.598Z,10.70
2023-04-19T05:35:24.417Z,10.82
2023-04-19T05:37:52.563Z,8.38
2023-04-19T05:40:20.378Z,9.07
2023-04-19T05:42:49.432Z,9.68
2023-04-19T05:45:18.586Z,10.48
2023-04-19T05:47:46.359Z,9.98
2023-04-19T05:50:14.997Z,9.57
2023-04-19T05:52:42.751Z,10.07
2023-04-19T05:55:11.001Z,8.60
2023-04-19T05:57:38.708Z,9.10
2023-04-19T06:00:09.888Z,9.02
2023-04-19T06:02:38.161Z,10.73
2023-04-19T06:05:10.305Z,11.77
2023-04-19T06:07:43.231Z,13.25
2023-04-19T06:10:18.305Z,13.48
2023-04-19T06:12:46.204Z,12.93
2023-04-19T06:15:15.241Z,12.82
2023-04-19T06:17:43.002Z,11.88
2023-04-19T06:20:12.522Z,12.68
2023-04-19T06:22:45.048Z,10.73
2023-04-19T06:25:12.831Z,12.07
2023-04-19T06:27:40.695Z,10.57
2023-04-19T06:30:09.278Z,13.05
2023-04-19T06:32:38.425Z,13.60
2023-04-19T06:35:08.064Z,12.35
2023-04-19T06:37:35.898Z,13.07
2023-04-19T06:40:04.982Z,12.98
2023-04-19T06:42:32.694Z,13.07
2023-04-19T06:45:00.661Z,11.25
2023-04-19T06:47:28.714Z,14.55
2023-04-19T06:49:58.354Z,12.35
2023-04-19T06:52:26.453Z,13.70
2023-04-19T06:54:54.243Z,13.65
2023-04-19T06:57:21.990Z,13.90
2023-04-19T06:59:49.688Z,13.23
2023-04-19T07:02:17.514Z,12.07
2023-04-19T07:04:46.072Z,14.07
2023-04-19T07:07:15.210Z,14.35
2023-04-19T07:09:43.037Z,12.88
2023-04-19T07:12:10.798Z,12.95
2023-04-19T07:14:38.613Z,12.85
2023-04-19T07:17:06.468Z,11.98
2023-04-19T07:19:35.516Z,13.50
2023-04-19T07:22:03.490Z,12.20
2023-04-19T07:24:32.898Z,12.75
2023-04-19T07:27:00.590Z,12.43
2023-04-19T07:29:28.287Z,13.95
2023-04-19T07:31:56.007Z,12.02
2023-04-19T07:34:23.879Z,12.77
2023-04-19T07:36:51.613Z,11.30
2023-04-19T07:39:19.529Z,11.63
2023-04-19T07:41:48.622Z,12.60
2023-04-19T07:44:16.574Z,12.15
2023-04-19T07:46:45.281Z,11.60
2023-04-19T07:49:13.173Z,11.98
2023-04-19T07:51:40.935Z,12.32
2023-04-19T07:54:08.731Z,12.40
2023-04-19T07:56:36.888Z,13.25
2023-04-19T07:59:09.062Z,11.57
2023-04-19T08:01:37.634Z,12.30
2023-04-19T08:04:05.922Z,12.13
2023-04-19T08:06:34.183Z,11.52
2023-04-19T08:09:02.044Z,11.82
2023-04-19T08:11:29.790Z,11.27
2023-04-19T08:17:09.110Z,10.95
2023-04-19T08:19:17.348Z,12.25
2023-04-19T08:21:45.093Z,11.43
2023-04-19T08:24:12.781Z,10.45
2023-04-19T08:26:40.572Z,10.85
2023-04-19T08:29:08.385Z,10.63
2023-04-19T08:31:37.572Z,10.13
2023-04-19T08:34:05.571Z,11.55
2023-04-19T08:36:39.450Z,12.25
2023-04-19T08:39:20.850Z,10.82
2023-04-19T08:42:02.696Z,11.52
2023-04-19T08:44:37.642Z,9.73
2023-04-19T08:47:20.287Z,9.63
2023-04-19T08:50:11.116Z,10.25
2023-04-19T08:52:54.909Z,9.45
2023-04-19T08:55:27.029Z,10.15
2023-04-19T08:57:54.735Z,11.02
2023-04-19T09:00:22.981Z,9.95
2023-04-19T09:02:54.621Z,9.95
2023-04-19T09:05:22.728Z,8.25
2023-04-19T09:07:50.970Z,10.65
2023-04-19T09:10:21.372Z,9.18
2023-04-19T09:13:02.755Z,10.48
2023-04-19T09:15:38.606Z,8.75
2023-04-19T09:18:09.966Z,9.02
2023-04-19T09:20:39.033Z,9.70
2023-04-19T09:23:07.968Z,9.38
2023-04-19T09:25:55.188Z,8.98
2023-04-19T09:28:24.495Z,9.60
2023-04-19T09:31:02.293Z,9.73
2023-04-19T09:33:39.528Z,8.45
2023-04-19T09:36:08.480Z,9.40
2023-04-19T09:38:47.887Z,7.90
2023-04-19T09:41:15.773Z,8.73
2023-04-19T09:44:00.791Z,9.00
2023-04-19T09:46:33.616Z,9.23
2023-04-19T09:49:33.703Z,8.60
2023-04-19T09:52:11.213Z,9.45
2023-04-19T09:54:40.112Z,9.63
2023-04-19T09:57:09.287Z,8.43
2023-04-19T09:59:37.058Z,9.13
2023-04-19T10:02:07.219Z,9.40
2023-04-19T10:04:50.458Z,10.45
2023-04-19T10:07:30.641Z,9.65
2023-04-19T10:10:11.814Z,9.40
2023-04-19T10:15:22.382Z,8.18
2023-04-19T10:17:50.365Z,8.85
2023-04-19T10:20:24.923Z,7.85
2023-04-19T10:22:52.955Z,8.40
2023-04-19T10:25:30.696Z,8.48
2023-04-19T10:27:59.100Z,7.72
2023-04-19T10:30:28.030Z,9.35
2023-04-19T10:32:57.111Z,8.63
2023-04-19T10:35:29.399Z,8.68
2023-04-19T10:38:07.385Z,8.37
2023-04-19T10:41:04.136Z,8.25
2023-04-19T10:43:33.831Z,8.00
2023-04-19T10:46:03.477Z,9.13
2023-04-19T10:48:44.123Z,8.13
2023-04-19T10:51:19.281Z,8.27
2023-04-19T10:53:49.239Z,8.23
2023-04-19T10:56:18.483Z,7.10
2023-04-19T10:59:23.124Z,6.93
2023-04-19T11:01:56.825Z,6.50
2023-04-19T11:04:58.636Z,7.88
2023-04-19T11:07:27.697Z,7.60
2023-04-19T11:09:55.436Z,7.38
2023-04-19T11:12:23.261Z,6.95
2023-04-19T11:14:54.119Z,6.78
2023-04-19T11:17:25.950Z,7.43
2023-04-19T11:19:59.273Z,6.53
2023-04-19T11:24:58.830Z,6.82
2023-04-19T11:27:26.684Z,5.78
2023-04-19T11:29:54.429Z,6.85
2023-04-19T11:32:23.475Z,8.13
2023-04-19T11:34:51.910Z,6.10
2023-04-19T11:37:19.652Z,7.85
2023-04-19T11:39:49.052Z,7.65
2023-04-19T11:42:21.019Z,7.57
2023-04-19T11:44:53.152Z,8.90
2023-04-19T11:47:21.464Z,6.40
2023-04-19T11:49:49.269Z,5.38
2023-04-19T11:52:22.490Z,6.63
2023-04-19T11:54:52.114Z,5.60
2023-04-19T11:57:29.539Z,4.85
2023-04-19T12:00:07.096Z,5.53
2023-04-19T12:02:40.158Z,5.10
2023-04-19T12:07:36.744Z,4.55
2023-04-19T12:10:12.083Z,4.93
2023-04-19T12:12:39.904Z,4.40
2023-04-19T12:15:08.579Z,4.18
2023-04-19T12:17:40.057Z,4.95
2023-04-19T12:20:13.571Z,4.60
2023-04-19T12:22:41.251Z,4.80
2023-04-19T12:25:09.457Z,5.05
2023-04-19T12:27:38.569Z,4.57
2023-04-19T12:30:07.535Z,3.20
2023-04-19T12:32:35.306Z,3.00
2023-04-19T12:35:03.118Z,4.03
2023-04-19T12:37:30.842Z,3.97
2023-04-19T12:39:58.609Z,3.47
2023-04-19T12:42:26.412Z,4.70
2023-04-19T12:44:55.473Z,4.70
2023-04-19T12:47:23.591Z,4.50
2023-04-19T12:49:51.402Z,3.75
2023-04-19T12:52:20.262Z,3.50
2023-04-19T12:54:47.981Z,4.43
2023-04-19T12:57:16.187Z,4.72
2023-04-19T12:59:43.885Z,3.28
2023-04-19T13:02:12.993Z,2.90
2023-04-19T13:04:40.871Z,2.78
2023-04-19T13:07:08.645Z,4.10
2023-04-19T13:09:36.329Z,3.80
2023-04-19T13:12:04.943Z,3.40
2023-04-19T13:14:32.848Z,3.65
2023-04-19T13:17:01.958Z,4.20
2023-04-19T13:19:31.118Z,3.67
2023-04-19T13:21:58.875Z,3.42
2023-04-19T13:24:26.581Z,4.40
2023-04-19T13:26:54.297Z,3.67
2023-04-19T13:29:22.077Z,4.30
2023-04-19T13:31:49.814Z,3.22
2023-04-19T13:34:18.815Z,3.80
2023-04-19T13:36:48.147Z,3.50
2023-04-19T13:39:15.869Z,3.13
2023-04-19T13:41:43.596Z,3.67
2023-04-19T13:44:11.877Z,2.90
2023-04-19T13:46:39.638Z,4.03
2023-04-19T13:49:07.410Z,3.38
2023-04-19T13:51:46.389Z,2.83
2023-04-19T13:54:19.355Z,4.05
2023-04-19T13:56:50.483Z,3.35
2023-04-19T13:59:19.759Z,3.10
2023-04-19T14:01:47.524Z,2.85
2023-04-19T14:04:15.428Z,3.33
2023-04-19T14:06:43.716Z,2.95
2023-04-19T14:09:11.397Z,3.47
2023-04-19T14:11:40.539Z,2.78
2023-04-19T14:14:08.270Z,3.17
2023-04-19T14:16:36.065Z,3.63
2023-04-19T14:19:03.940Z,3.05
2023-04-19T14:21:31.957Z,2.42
2023-04-19T14:24:00.137Z,2.58
2023-04-19T14:26:27.892Z,2.53
2023-04-19T14:28:56.940Z,2.92
2023-04-19T14:31:24.652Z,3.17
2023-04-19T14:33:52.448Z,2.28
2023-04-19T14:36:20.185Z,2.85
2023-04-19T14:38:47.973Z,2.60
2023-04-19T14:41:15.643Z,2.33
2023-04-19T14:43:43.323Z,2.55
2023-04-19T14:46:12.476Z,2.65
2023-04-19T14:48:40.171Z,2.47
2023-04-19T14:51:07.899Z,2.53
2023-04-19T14:53:35.784Z,2.75
2023-04-19T14:56:05.685Z,2.35
2023-04-19T14:58:33.390Z,2.13
2023-04-19T15:01:01.160Z,2.38
2023-04-19T15:03:30.448Z,2.25
2023-04-19T15:05:58.368Z,2.25
2023-04-19T15:08:30.633Z,2.33
2023-04-19T15:10:58.950Z,2.25
2023-04-19T15:13:27.324Z,2.17
2023-04-19T15:15:55.111Z,2.10
2023-04-19T15:18:22.872Z,1.98
2023-04-19T15:20:52.616Z,2.17
2023-04-19T15:23:24.142Z,1.77
2023-04-19T15:25:52.060Z,2.22
2023-04-19T15:28:19.846Z,1.98
2023-04-19T15:30:55.036Z,2.42
2023-04-19T15:33:22.810Z,2.40
2023-04-19T15:35:52.890Z,2.03
2023-04-19T15:38:22.732Z,2.70
2023-04-19T15:40:50.477Z,1.77
2023-04-19T15:43:18.276Z,2.10
2023-04-19T15:45:45.942Z,2.42
2023-04-19T15:48:13.644Z,1.77
2023-04-19T15:50:44.127Z,1.83
2023-04-19T15:53:13.791Z,1.95
2023-04-19T15:55:41.592Z,2.25
2023-04-19T15:58:09.516Z,1.90
2023-04-19T16:00:37.278Z,2.10
2023-04-19T16:03:05.791Z,2.10
2023-04-19T16:05:33.625Z,1.80
2023-04-19T16:08:05.708Z,1.83
2023-04-19T16:10:34.938Z,2.27
2023-04-19T16:13:03.872Z,2.22
2023-04-19T16:15:31.608Z,2.30
2023-04-19T16:17:59.392Z,2.22
2023-04-19T16:20:27.236Z,1.98
2023-04-19T16:22:54.903Z,1.83
2023-04-19T16:25:22.560Z,2.10
2023-04-19T16:27:51.830Z,2.83
2023-04-19T16:30:19.581Z,1.80
2023-04-19T16:32:47.336Z,1.88
2023-04-19T16:35:15.016Z,1.80
2023-04-19T16:37:42.894Z,2.25
2023-04-19T16:40:11.990Z,2.17
2023-04-19T16:42:40.431Z,2.13
2023-04-19T16:45:10.589Z,1.75
2023-04-19T16:47:38.511Z,2.10
2023-04-19T16:50:07.437Z,2.38
2023-04-19T16:52:36.262Z,1.98
2023-04-19T16:55:04.504Z,1.80
2023-04-19T16:57:33.145Z,1.98
2023-04-19T17:00:00.951Z,2.05
2023-04-19T17:02:30.241Z,1.52
2023-04-19T17:04:58.299Z,1.95
2023-04-19T17:07:26.277Z,1.95
2023-04-19T17:09:54.173Z,2.53
2023-04-19T17:12:21.989Z,1.67
2023-04-19T17:14:49.761Z,2.10
2023-04-19T17:17:19.078Z,2.10
2023-04-19T17:19:48.283Z,1.98
2023-04-19T17:22:16.131Z,1.90
2023-04-19T17:24:44.108Z,2.63
2023-04-19T17:27:12.038Z,2.05
2023-04-19T17:29:39.756Z,1.83
2023-04-19T17:32:08.801Z,2.20
2023-04-19T17:34:37.145Z,2.13
2023-04-19T17:37:06.374Z,1.80
2023-04-19T17:39:34.131Z,1.98
2023-04-19T17:42:01.972Z,2.50
2023-04-19T17:44:29.659Z,2.20
2023-04-19T17:46:58.278Z,2.28
2023-04-19T17:49:27.059Z,2.15
2023-04-19T17:51:55.946Z,2.67
2023-04-19T17:54:25.115Z,2.88
2023-04-19T17:56:53.626Z,2.35
2023-04-19T17:59:21.500Z,2.88
2023-04-19T18:01:49.263Z,2.17
2023-04-19T18:04:20.122Z,2.33
2023-04-19T18:06:47.978Z,2.47
2023-04-19T18:09:16.565Z,2.50
2023-04-19T18:11:47.649Z,2.30
2023-04-19T18:14:16.047Z,2.08
2023-04-19T18:16:44.029Z,2.40
2023-04-19T18:19:11.796Z,2.08
2023-04-19T18:21:39.502Z,2.50
2023-04-19T18:24:07.749Z,2.50
2023-04-19T18:26:39.601Z,2.17
2023-04-19T18:29:08.731Z,2.70
2023-04-19T18:31:36.539Z,2.50
2023-04-19T18:34:04.309Z,2.53
2023-04-19T18:36:32.219Z,2.55
2023-04-19T18:38:59.947Z,2.83
2023-04-19T18:41:27.686Z,2.40
2023-04-19T18:44:24.851Z,2.20
2023-04-19T18:46:44.460Z,2.95
2023-04-19T18:49:12.375Z,2.60
2023-04-19T18:51:40.103Z,2.70
2023-04-19T18:54:07.838Z,2.13
2023-04-19T18:59:06.116Z,2.20
2023-04-19T19:01:33.802Z,3.25
2023-04-19T19:06:34.208Z,2.42
2023-04-19T19:09:02.094Z,2.53
2023-04-19T19:14:01.714Z,2.58
2023-04-19T19:16:31.045Z,2.40
2023-04-19T19:18:58.876Z,2.92
2023-04-19T19:21:29.248Z,2.50
2023-04-19T19:23:57.854Z,2.45
2023-04-19T19:26:26.086Z,2.03
2023-04-19T19:28:53.874Z,3.00
2023-04-19T19:31:22.117Z,2.95
2023-04-19T19:34:03.963Z,2.35
2023-04-19T19:36:39.481Z,2.08
2023-04-19T19:39:07.169Z,2.88
2023-04-19T19:44:05.982Z,2.55
2023-04-19T19:46:36.635Z,2.92
2023-04-19T19:49:05.653Z,2.45
2023-04-19T19:54:06.151Z,2.53
2023-04-19T19:59:02.507Z,2.72
2023-04-19T20:01:31.787Z,2.88
2023-04-19T20:03:59.822Z,2.70
2023-04-19T20:07:21.923Z,2.80
2023-04-19T20:09:16.889Z,2.35
2023-04-19T20:11:44.763Z,2.95
2023-04-19T20:14:12.492Z,3.15
2023-04-19T20:16:40.492Z,2.78
2023-04-19T20:19:10.292Z,2.63
2023-04-19T20:21:38.268Z,3.75
2023-04-19T20:24:07.797Z,3.40
2023-04-19T20:26:36.864Z,2.72
2023-04-19T20:29:04.557Z,3.13
2023-04-19T20:31:32.495Z,4.43
2023-04-19T20:34:00.222Z,2.65
2023-04-19T20:36:28.327Z,2.70
2023-04-19T20:38:56.947Z,3.10
2023-04-19T20:41:24.720Z,3.42
2023-04-19T20:43:56.932Z,2.75
2023-04-19T20:46:24.814Z,3.63
2023-04-19T20:48:52.554Z,4.43
2023-04-19T20:51:20.233Z,3.70
2023-04-19T20:53:47.915Z,3.15
2023-04-19T20:56:15.581Z,3.35
2023-04-19T20:58:43.343Z,3.80
2023-04-19T21:01:16.994Z,3.13
2023-04-19T21:03:45.081Z,4.78
2023-04-19T21:06:13.258Z,3.35
2023-04-19T21:08:41.040Z,3.95
2023-04-19T21:11:08.869Z,4.30
2023-04-19T21:13:36.602Z,4.70
2023-04-19T21:16:04.489Z,5.13
2023-04-19T21:18:33.643Z,5.30
2023-04-19T21:21:01.362Z,4.40
2023-04-19T21:23:29.119Z,4.10
2023-04-19T21:25:56.841Z,3.50
2023-04-19T21:28:24.910Z,4.65
2023-04-19T21:30:53.406Z,4.30
2023-04-19T21:33:21.177Z,4.35
2023-04-19T21:35:50.279Z,5.18
2023-04-19T21:38:18.021Z,5.82
2023-04-19T21:40:46.378Z,4.75
2023-04-19T21:43:14.058Z,4.13
2023-04-19T21:45:41.834Z,4.45
2023-04-19T21:48:09.594Z,5.20
2023-04-19T21:50:37.298Z,4.68
2023-04-19T21:53:06.375Z,5.70
2023-04-19T21:55:34.469Z,4.93
2023-04-19T21:58:02.493Z,6.10
2023-04-19T22:00:30.427Z,4.38
2023-04-19T22:02:58.271Z,4.65
2023-04-19T22:05:26.146Z,5.88
2023-04-19T22:07:54.076Z,4.50
2023-04-19T22:10:23.923Z,4.82
2023-04-19T22:12:58.347Z,4.93
2023-04-19T22:15:26.634Z,5.70
2023-04-19T22:17:54.462Z,4.57
2023-04-19T22:20:22.232Z,5.07
2023-04-19T22:22:49.963Z,4.93
2023-04-19T22:25:17.820Z,4.70
2023-04-19T22:27:48.708Z,5.20
2023-04-19T22:30:16.664Z,5.72
2023-04-19T22:32:44.438Z,5.47
2023-04-19T22:35:12.170Z,6.00
2023-04-19T22:37:39.868Z,5.28
2023-04-19T22:40:09.400Z,5.57
2023-04-19T22:42:37.110Z,6.03
2023-04-19T22:45:08.036Z,4.72
2023-04-19T22:47:37.347Z,5.68
2023-04-19T22:50:05.800Z,5.20
2023-04-19T22:52:34.465Z,6.00
2023-04-19T22:55:02.230Z,5.88
2023-04-19T22:57:29.878Z,5.60
2023-04-19T22:59:57.531Z,4.90
2023-04-19T23:02:26.814Z,4.28
2023-04-19T23:04:54.614Z,5.45
2023-04-19T23:07:22.707Z,5.70
2023-04-19T23:09:51.801Z,5.07
2023-04-19T23:12:19.610Z,3.88
2023-04-19T23:14:48.257Z,5.07
2023-04-19T23:17:17.116Z,5.25
2023-04-19T23:19:46.412Z,4.60
2023-04-19T23:22:14.165Z,4.78
2023-04-19T23:24:41.935Z,5.72
2023-04-19T23:27:09.754Z,5.32
2023-04-19T23:29:37.471Z,4.85
2023-04-19T23:32:05.532Z,5.53
2023-04-19T23:34:33.270Z,3.97
2023-04-19T23:37:02.353Z,4.93
2023-04-19T23:39:30.060Z,5.60
2023-04-19T23:41:57.993Z,5.13
2023-04-19T23:44:27.804Z,5.05
2023-04-19T23:46:55.547Z,4.15
2023-04-19T23:49:23.504Z,4.38
2023-04-19T23:51:51.195Z,4.25
2023-04-19T23:54:22.175Z,4.88
2023-04-19T23:56:50.733Z,4.03
2023-04-19T23:59:19.019Z,4.47
